createdAt,value
2017-12-13T00:00:48.477Z,99.90
2017-12-13T00:03:15.474Z,99.90
2017-12-13T00:05:43.421Z,99.90
2017-12-13T00:08:10.421Z,99.90
2017-12-13T00:10:37.422Z,99.90
2017-12-13T00:13:04.421Z,99.90
2017-12-13T00:15:31.469Z,99.90
2017-12-13T00:17:58.500Z,99.90
2017-12-13T00:20:25.546Z,99.90
2017-12-13T00:22:52.550Z,99.90
2017-12-13T00:25:19.583Z,99.90
2017-12-13T00:27:46.624Z,99.90
2017-12-13T00:30:13.734Z,99.90
2017-12-13T00:32:40.950Z,99.90
2017-12-13T00:35:07.951Z,99.90
2017-12-13T00:37:34.957Z,99.90
2017-12-13T00:40:01.960Z,99.90
2017-12-13T00:42:28.955Z,99.90
2017-12-13T00:44:55.942Z,99.90
2017-12-13T00:47:22.933Z,99.90
2017-12-13T00:49:49.942Z,99.90
2017-12-13T00:52:16.930Z,99.90
2017-12-13T00:54:43.928Z,99.90
2017-12-13T00:57:10.928Z,99.90
2017-12-13T00:59:37.922Z,99.90
2017-12-13T01:02:04.911Z,99.90
2017-12-13T01:04:31.915Z,99.90
2017-12-13T01:06:58.892Z,99.90
2017-12-13T01:09:26.030Z,99.90
2017-12-13T01:11:53.038Z,99.90
2017-12-13T01:14:20.035Z,99.90
2017-12-13T01:16:47.029Z,99.90
2017-12-13T01:19:14.038Z,99.90
2017-12-13T01:21:41.038Z,99.90
2017-12-13T01:24:08.030Z,99.90
2017-12-13T01:26:35.038Z,99.90
2017-12-13T01:29:02.031Z,99.90
2017-12-13T01:31:29.042Z,99.90
2017-12-13T01:33:56.042Z,99.90
2017-12-13T01:36:23.042Z,99.90
2017-12-13T01:38:50.033Z,99.90
2017-12-13T01:41:17.034Z,99.90
2017-12-13T01:43:44.082Z,99.90
2017-12-13T01:46:11.026Z,99.90
2017-12-13T01:48:38.067Z,99.90
2017-12-13T01:51:05.021Z,99.90
2017-12-13T01:53:32.017Z,99.90
2017-12-13T01:55:59.006Z,99.90
2017-12-13T01:58:25.998Z,99.90
2017-12-13T02:00:53.002Z,99.90
2017-12-13T02:03:20.002Z,99.90
2017-12-13T02:05:46.994Z,99.90
2017-12-13T02:11:09.791Z,99.90
2017-12-13T02:13:36.791Z,99.90
2017-12-13T02:16:03.817Z,99.90
2017-12-13T02:18:30.809Z,99.90
2017-12-13T02:20:57.806Z,99.90
2017-12-13T02:26:21.157Z,99.90
2017-12-13T02:28:48.178Z,99.90
2017-12-13T02:31:15.199Z,99.90
2017-12-13T02:33:42.213Z,99.90
2017-12-13T02:36:09.224Z,99.90
2017-12-13T02:38:36.243Z,99.90
2017-12-13T02:41:03.283Z,99.90
2017-12-13T02:43:30.325Z,99.90
2017-12-13T02:45:58.114Z,99.90
2017-12-13T02:48:25.138Z,99.90
2017-12-13T02:50:52.167Z,99.90
2017-12-13T02:53:19.217Z,99.90
2017-12-13T02:55:47.078Z,99.90
2017-12-13T02:58:26.684Z,99.90
2017-12-13T03:00:53.801Z,99.90
2017-12-13T03:03:20.826Z,99.90
2017-12-13T03:05:47.867Z,99.90
2017-12-13T03:08:14.897Z,99.90
2017-12-13T03:10:41.932Z,99.90
2017-12-13T03:13:08.970Z,99.90
2017-12-13T03:15:36.009Z,99.90
2017-12-13T03:18:03.026Z,99.90
2017-12-13T03:20:30.039Z,99.90
2017-12-13T03:22:57.065Z,99.90
2017-12-13T03:25:24.141Z,99.90
2017-12-13T03:27:51.157Z,99.90
2017-12-13T03:30:18.163Z,99.90
2017-12-13T03:32:45.169Z,99.90
2017-12-13T03:35:12.215Z,99.90
2017-12-13T03:37:39.286Z,99.90
2017-12-13T03:40:06.331Z,99.90
2017-12-13T03:42:33.343Z,99.90
2017-12-13T03:45:00.417Z,99.90
2017-12-13T03:47:27.507Z,99.90
2017-12-13T03:49:54.508Z,99.90
2017-12-13T03:52:21.558Z,99.90
2017-12-13T03:54:48.644Z,99.90
2017-12-13T03:57:15.682Z,99.90
2017-12-13T03:59:42.821Z,99.90
2017-12-13T04:02:09.862Z,99.90
2017-12-13T04:04:36.929Z,99.90
2017-12-13T04:07:04.086Z,99.90
2017-12-13T04:09:31.266Z,99.90
2017-12-13T04:37:41.585Z,99.90
2017-12-13T04:40:31.650Z,99.90
2017-12-13T04:49:06.191Z,99.90
2017-12-13T04:51:34.651Z,99.90
2017-12-13T04:54:03.242Z,99.90
2017-12-13T04:56:31.652Z,99.90
2017-12-13T05:01:36.174Z,99.90
2017-12-13T05:04:10.397Z,99.90
2017-12-13T05:06:40.937Z,99.90
2017-12-13T05:09:11.005Z,99.90
2017-12-13T05:11:40.519Z,99.90
2017-12-13T05:16:47.212Z,99.90
2017-12-13T05:19:16.146Z,99.90
2017-12-13T05:21:46.179Z,99.90
2017-12-13T05:24:16.775Z,99.90
2017-12-13T05:26:44.447Z,99.90
2017-12-13T05:29:18.898Z,99.90
2017-12-13T05:31:46.817Z,99.90
2017-12-13T05:34:13.991Z,99.90
2017-12-13T05:36:41.109Z,99.90
2017-12-13T05:39:08.240Z,99.90
2017-12-13T05:41:38.395Z,99.90
2017-12-13T05:44:05.539Z,99.90
2017-12-13T05:46:32.728Z,99.90
2017-12-13T05:48:59.967Z,99.90
2017-12-13T05:51:27.076Z,99.90
2017-12-13T05:53:54.162Z,99.90
2017-12-13T05:56:21.210Z,99.90
2017-12-13T05:58:48.292Z,99.90
2017-12-13T06:01:15.341Z,99.90
2017-12-13T06:03:42.366Z,99.90
2017-12-13T06:06:10.214Z,99.90
2017-12-13T06:08:37.239Z,99.90
2017-12-13T06:11:04.250Z,99.90
2017-12-13T06:13:31.250Z,99.90
2017-12-13T06:15:58.261Z,99.90
2017-12-13T06:18:25.259Z,99.90
2017-12-13T06:20:53.042Z,99.90
2017-12-13T06:23:20.054Z,99.90
2017-12-13T06:25:47.054Z,99.90
2017-12-13T06:28:14.056Z,99.90
2017-12-13T06:30:41.060Z,99.90
2017-12-13T06:33:08.051Z,99.90
2017-12-13T06:35:35.053Z,99.90
2017-12-13T06:38:02.063Z,99.90
2017-12-13T06:40:29.078Z,99.90
2017-12-13T06:42:56.083Z,99.90
2017-12-13T06:45:23.102Z,99.90
2017-12-13T06:47:50.126Z,99.90
2017-12-13T06:50:17.115Z,99.90
2017-12-13T06:52:44.117Z,99.90
2017-12-13T06:55:11.906Z,99.90
2017-12-13T06:57:38.934Z,99.90
2017-12-13T07:00:06.702Z,99.90
2017-12-13T07:02:34.491Z,99.90
2017-12-13T07:05:01.485Z,99.90
2017-12-13T07:07:28.519Z,99.90
2017-12-13T07:09:55.528Z,99.90
2017-12-13T07:12:22.542Z,99.90
2017-12-13T07:14:50.316Z,99.90
2017-12-13T07:17:17.318Z,99.90
2017-12-13T07:19:44.375Z,99.90
2017-12-13T07:22:11.310Z,99.90
2017-12-13T07:24:38.306Z,99.90
2017-12-13T07:27:05.306Z,99.90
2017-12-13T07:29:32.337Z,99.90
2017-12-13T07:31:59.351Z,99.90
2017-12-13T07:34:26.356Z,99.90
2017-12-13T07:36:53.365Z,99.90
2017-12-13T07:39:20.366Z,99.90
2017-12-13T07:41:48.144Z,99.90
2017-12-13T07:44:15.146Z,99.90
2017-12-13T07:46:42.159Z,99.90
2017-12-13T07:49:09.156Z,99.90
2017-12-13T07:51:36.918Z,99.90
2017-12-13T07:54:05.491Z,99.90
2017-12-13T07:56:32.856Z,99.90
2017-12-13T07:58:59.919Z,99.90
2017-12-13T08:01:26.989Z,99.90
2017-12-13T08:03:54.068Z,99.90
2017-12-13T08:06:21.199Z,99.90
2017-12-13T08:08:49.053Z,99.90
2017-12-13T08:11:16.464Z,99.90
2017-12-13T08:13:43.680Z,99.90
2017-12-13T08:16:10.945Z,99.90
2017-12-13T08:18:39.923Z,99.90
2017-12-13T08:21:11.754Z,99.90
2017-12-13T08:23:42.319Z,99.90
2017-12-13T08:28:47.352Z,99.90
2017-12-13T08:31:16.419Z,99.90
2017-12-13T08:33:49.919Z,99.90
2017-12-13T08:36:22.454Z,99.90
2017-12-13T08:38:50.105Z,99.90
2017-12-13T08:41:18.026Z,99.90
2017-12-13T08:43:45.857Z,99.90
2017-12-13T09:00:33.543Z,99.90
2017-12-13T09:03:00.556Z,99.90
2017-12-13T09:05:27.562Z,99.90
2017-12-13T09:07:55.322Z,99.90
2017-12-13T09:10:22.330Z,99.90
2017-12-13T09:12:49.331Z,99.90
2017-12-13T09:15:16.353Z,99.90
2017-12-13T09:17:43.345Z,99.90
2017-12-13T09:20:10.363Z,99.90
2017-12-13T09:22:38.122Z,99.90
2017-12-13T09:25:05.888Z,99.90
2017-12-13T09:27:32.888Z,99.90
2017-12-13T09:29:59.894Z,99.90
2017-12-13T09:32:26.917Z,99.90
2017-12-13T09:34:53.897Z,99.90
2017-12-13T09:37:20.890Z,99.90
2017-12-13T09:39:47.892Z,99.90
2017-12-13T09:42:14.893Z,99.90
2017-12-13T09:44:41.910Z,99.90
2017-12-13T09:47:08.899Z,99.90
2017-12-13T09:49:35.898Z,99.90
2017-12-13T09:52:02.891Z,99.90
2017-12-13T09:54:29.898Z,99.90
2017-12-13T09:56:56.909Z,98.70
2017-12-13T09:59:23.918Z,95.30
2017-12-13T10:01:50.926Z,91.50
2017-12-13T10:04:17.925Z,94.10
2017-12-13T10:06:45.691Z,92.90
2017-12-13T10:09:12.690Z,92.90
2017-12-13T10:11:39.701Z,93.50
2017-12-13T10:14:06.697Z,93.60
2017-12-13T10:16:33.714Z,94.20
2017-12-13T10:19:00.720Z,94.40
2017-12-13T10:21:27.724Z,89.00
2017-12-13T10:23:54.723Z,92.00
2017-12-13T10:26:21.725Z,92.50
2017-12-13T10:28:48.742Z,92.10
2017-12-13T10:31:15.751Z,93.90
2017-12-13T10:33:42.753Z,94.10
2017-12-13T10:36:09.762Z,92.80
2017-12-13T10:38:36.762Z,93.80
2017-12-13T10:41:04.521Z,95.10
2017-12-13T10:43:31.510Z,95.00
2017-12-13T10:45:58.510Z,96.00
2017-12-13T10:48:25.526Z,96.10
2017-12-13T10:50:52.529Z,94.40
2017-12-13T10:53:19.530Z,94.30
2017-12-13T10:55:46.539Z,95.40
2017-12-13T10:58:13.529Z,97.40
2017-12-13T11:00:40.531Z,97.50
2017-12-13T11:03:07.533Z,98.90
2017-12-13T11:05:34.534Z,96.40
2017-12-13T11:08:01.526Z,93.60
2017-12-13T11:10:29.285Z,92.90
2017-12-13T11:12:56.294Z,92.90
2017-12-13T11:15:23.291Z,93.30
2017-12-13T11:17:50.293Z,96.60
2017-12-13T11:20:17.298Z,94.40
2017-12-13T11:22:44.309Z,93.20
2017-12-13T11:25:11.302Z,93.80
2017-12-13T11:27:38.289Z,94.20
2017-12-13T11:30:05.281Z,94.80
2017-12-13T11:32:32.293Z,95.30
2017-12-13T11:34:59.290Z,94.60
2017-12-13T11:37:26.287Z,94.00
2017-12-13T11:39:53.301Z,95.00
2017-12-13T11:42:20.298Z,95.00
2017-12-13T11:44:47.297Z,96.80
2017-12-13T11:47:14.312Z,95.70
2017-12-13T11:49:41.314Z,94.20
2017-12-13T11:52:08.357Z,95.20
2017-12-13T11:54:38.181Z,96.30
2017-12-13T11:57:05.181Z,96.10
2017-12-13T11:59:32.174Z,96.30
2017-12-13T12:01:59.945Z,98.20
2017-12-13T12:04:26.937Z,98.20
2017-12-13T12:06:53.929Z,99.90
2017-12-13T12:09:21.693Z,99.90
2017-12-13T12:11:49.458Z,99.90
2017-12-13T12:14:17.233Z,99.90
2017-12-13T12:16:44.226Z,99.90
2017-12-13T12:19:11.229Z,99.90
2017-12-13T12:21:38.220Z,99.90
2017-12-13T12:24:05.216Z,99.90
2017-12-13T12:26:32.210Z,99.90
2017-12-13T12:28:59.220Z,99.90
2017-12-13T12:31:26.221Z,99.90
2017-12-13T12:33:53.235Z,99.90
2017-12-13T12:36:20.226Z,99.90
2017-12-13T12:38:47.232Z,99.90
2017-12-13T12:41:14.230Z,99.90
2017-12-13T12:43:41.230Z,99.90
2017-12-13T12:46:08.218Z,99.90
2017-12-13T12:48:35.225Z,99.90
2017-12-13T12:51:02.214Z,99.90
2017-12-13T12:53:29.210Z,99.90
2017-12-13T12:55:56.206Z,99.90
2017-12-13T12:58:23.202Z,99.90
2017-12-13T13:00:50.193Z,99.90
2017-12-13T13:03:17.193Z,99.90
2017-12-13T13:05:44.200Z,99.90
2017-12-13T13:08:11.188Z,99.90
2017-12-13T13:10:38.191Z,99.90
2017-12-13T13:13:05.250Z,99.90
2017-12-13T13:15:33.004Z,99.90
2017-12-13T13:18:00.052Z,99.90
2017-12-13T13:20:27.062Z,99.90
2017-12-13T13:22:54.818Z,99.90
2017-12-13T13:25:22.656Z,99.90
2017-12-13T13:27:49.717Z,99.90
2017-12-13T13:30:16.808Z,99.90
2017-12-13T13:32:43.825Z,99.90
2017-12-13T13:35:11.603Z,99.90
2017-12-13T13:37:39.367Z,99.90
2017-12-13T13:40:07.130Z,99.90
2017-12-13T13:42:34.937Z,99.90
2017-12-13T13:45:01.996Z,99.90
2017-12-13T13:47:28.986Z,99.90
2017-12-13T13:49:56.856Z,99.90
2017-12-13T13:52:24.714Z,99.90
2017-12-13T13:54:51.698Z,99.90
2017-12-13T13:57:18.718Z,99.90
2017-12-13T13:59:45.717Z,99.90
2017-12-13T14:02:12.724Z,99.90
2017-12-13T14:04:39.711Z,99.90
2017-12-13T14:07:06.768Z,99.90
2017-12-13T14:09:33.798Z,99.90
2017-12-13T14:12:00.789Z,99.90
2017-12-13T14:14:27.794Z,99.90
2017-12-13T14:16:54.798Z,99.90
2017-12-13T14:19:21.793Z,99.90
2017-12-13T14:21:48.789Z,99.90
2017-12-13T14:24:15.782Z,99.90
2017-12-13T14:26:42.780Z,99.90
2017-12-13T14:29:09.778Z,99.90
2017-12-13T14:31:36.782Z,99.90
2017-12-13T14:34:03.822Z,99.90
2017-12-13T14:36:30.809Z,99.90
2017-12-13T14:38:57.859Z,99.90
2017-12-13T14:41:24.851Z,99.90
2017-12-13T14:43:51.849Z,99.90
2017-12-13T14:46:18.834Z,99.90
2017-12-13T14:48:45.876Z,99.90
2017-12-13T14:51:13.623Z,99.90
2017-12-13T14:53:41.386Z,99.90
2017-12-13T14:56:09.191Z,99.90
2017-12-13T14:58:36.188Z,99.90
2017-12-13T15:01:03.945Z,99.90
2017-12-13T15:03:30.957Z,99.90
2017-12-13T15:05:57.950Z,99.90
2017-12-13T15:08:25.748Z,99.90
2017-12-13T15:10:52.784Z,99.90
2017-12-13T15:13:19.820Z,99.90
2017-12-13T15:15:47.569Z,99.90
2017-12-13T15:18:15.326Z,99.90
2017-12-13T15:20:43.085Z,99.90
2017-12-13T15:23:10.858Z,99.90
2017-12-13T15:25:38.626Z,99.90
2017-12-13T15:28:06.385Z,99.90
2017-12-13T15:30:34.145Z,99.90
2017-12-13T15:33:01.907Z,99.90
2017-12-13T15:35:29.722Z,99.90
2017-12-13T15:37:56.700Z,99.90
2017-12-13T15:40:23.753Z,99.90
2017-12-13T15:42:50.730Z,99.90
2017-12-13T15:45:17.772Z,99.90
2017-12-13T15:47:45.518Z,99.90
2017-12-13T15:50:13.282Z,99.90
2017-12-13T15:52:41.082Z,99.90
2017-12-13T15:55:08.070Z,99.90
2017-12-13T15:57:35.061Z,99.90
2017-12-13T16:00:02.134Z,99.90
2017-12-13T16:02:29.154Z,99.90
2017-12-13T16:04:56.905Z,99.90
2017-12-13T16:07:24.711Z,99.90
2017-12-13T16:09:51.745Z,99.90
2017-12-13T16:12:18.778Z,99.90
2017-12-13T16:14:45.783Z,99.90
2017-12-13T16:17:12.831Z,99.90
2017-12-13T16:19:39.856Z,99.90
2017-12-13T16:22:06.885Z,99.90
2017-12-13T16:24:33.909Z,99.90
2017-12-13T16:27:00.941Z,99.90
2017-12-13T16:29:28.731Z,99.90
2017-12-13T16:31:55.730Z,99.90
2017-12-13T16:34:22.725Z,99.90
2017-12-13T16:36:49.769Z,99.90
2017-12-13T16:39:16.796Z,99.90
2017-12-13T16:41:44.550Z,99.90
2017-12-13T16:44:12.350Z,99.90
2017-12-13T16:46:39.371Z,99.90
2017-12-13T16:49:06.408Z,99.90
2017-12-13T16:51:34.162Z,99.90
2017-12-13T16:54:01.925Z,99.90
2017-12-13T16:56:29.724Z,99.90
2017-12-13T16:58:56.722Z,99.90
2017-12-13T17:01:23.714Z,99.90
2017-12-13T17:03:50.748Z,99.90
2017-12-13T17:06:17.740Z,99.90
2017-12-13T17:08:44.784Z,99.90
2017-12-13T17:11:11.762Z,99.90
2017-12-13T17:13:39.568Z,99.90
2017-12-13T17:16:06.558Z,99.90
2017-12-13T17:18:34.326Z,99.90
2017-12-13T17:21:02.134Z,99.90
2017-12-13T17:23:29.125Z,99.90
2017-12-13T17:25:56.159Z,99.90
2017-12-13T17:28:23.148Z,99.90
2017-12-13T17:30:50.179Z,99.90
2017-12-13T17:33:17.982Z,99.90
2017-12-13T17:35:45.009Z,99.90
2017-12-13T17:38:12.006Z,99.90
2017-12-13T17:40:39.056Z,99.90
2017-12-13T17:43:06.083Z,99.90
2017-12-13T17:45:33.136Z,99.90
2017-12-13T17:48:00.158Z,99.90
2017-12-13T17:50:27.154Z,99.90
2017-12-13T17:52:54.196Z,99.90
2017-12-13T17:55:21.236Z,99.90
2017-12-13T17:57:48.269Z,99.90
2017-12-13T18:00:15.290Z,99.90
2017-12-13T18:02:42.315Z,99.90
2017-12-13T18:05:10.069Z,99.90
2017-12-13T18:07:37.114Z,99.90
2017-12-13T18:10:04.866Z,99.90
2017-12-13T18:12:32.670Z,99.90
2017-12-13T18:14:59.699Z,99.90
2017-12-13T18:17:27.485Z,99.90
2017-12-13T18:19:54.513Z,99.90
2017-12-13T18:22:21.543Z,99.90
2017-12-13T18:27:16.936Z,99.90
2017-12-13T18:29:43.938Z,99.90
2017-12-13T18:32:10.977Z,99.90
2017-12-13T18:34:38.016Z,99.90
2017-12-13T18:37:05.814Z,99.90
2017-12-13T18:39:32.842Z,99.90
2017-12-13T18:41:59.871Z,99.90
2017-12-13T18:44:27.687Z,99.90
2017-12-13T18:46:54.716Z,99.90
2017-12-13T18:49:21.753Z,99.90
2017-12-13T18:51:48.791Z,99.90
2017-12-13T18:54:15.830Z,99.90
2017-12-13T18:56:42.892Z,99.90
2017-12-13T18:59:09.937Z,99.90
2017-12-13T19:01:36.935Z,99.90
2017-12-13T19:04:04.746Z,99.90
2017-12-13T19:06:31.776Z,99.90
2017-12-13T19:08:58.809Z,99.90
2017-12-13T19:11:26.601Z,99.90
2017-12-13T19:13:53.641Z,99.90
2017-12-13T19:16:20.676Z,99.90
2017-12-13T19:18:47.695Z,99.90
2017-12-13T19:21:15.500Z,99.90
2017-12-13T19:23:42.539Z,99.90
2017-12-13T19:26:09.542Z,99.90
2017-12-13T19:28:36.588Z,99.90
2017-12-13T19:31:03.577Z,99.90
2017-12-13T19:33:30.620Z,99.90
2017-12-13T19:35:57.614Z,99.90
2017-12-13T19:38:24.651Z,99.90
2017-12-13T19:40:51.791Z,99.90
2017-12-13T19:43:18.785Z,99.90
2017-12-13T19:45:45.828Z,99.90
2017-12-13T19:48:13.637Z,99.90
2017-12-13T19:50:40.622Z,99.90
2017-12-13T19:53:07.677Z,99.90
2017-12-13T19:55:35.285Z,99.90
2017-12-13T19:58:02.320Z,99.90
2017-12-13T20:00:29.890Z,99.90
2017-12-13T20:02:57.757Z,99.90
2017-12-13T20:05:24.791Z,99.90
2017-12-13T20:07:51.827Z,99.90
2017-12-13T20:10:18.865Z,99.90
2017-12-13T20:12:45.901Z,99.90
2017-12-13T20:15:16.608Z,99.90
2017-12-13T20:17:43.640Z,99.90
2017-12-13T20:20:10.673Z,99.90
2017-12-13T20:22:37.709Z,99.90
2017-12-13T20:25:05.956Z,99.90
2017-12-13T20:27:33.763Z,99.90
2017-12-13T20:30:00.800Z,99.90
2017-12-13T20:32:27.824Z,99.90
2017-12-13T20:34:54.855Z,99.90
2017-12-13T20:37:21.895Z,99.90
2017-12-13T20:39:49.710Z,99.90
2017-12-13T20:42:16.741Z,99.90
2017-12-13T20:44:43.789Z,99.90
2017-12-13T20:47:10.825Z,99.90
2017-12-13T20:49:37.834Z,99.90
2017-12-13T20:52:05.593Z,99.90
2017-12-13T20:54:33.409Z,99.90
2017-12-13T20:57:00.436Z,99.90
2017-12-13T20:59:28.125Z,99.90
2017-12-13T21:01:55.177Z,99.90
2017-12-13T21:04:22.182Z,99.90
2017-12-13T21:06:49.720Z,99.90
2017-12-13T21:09:16.753Z,99.90
2017-12-13T21:11:44.430Z,99.90
2017-12-13T21:14:12.195Z,99.90
2017-12-13T21:16:40.008Z,99.90
2017-12-13T21:19:07.073Z,99.90
2017-12-13T21:21:34.121Z,99.90
2017-12-13T21:24:01.179Z,99.90
2017-12-13T21:26:28.242Z,99.90
2017-12-13T21:28:56.770Z,99.90
2017-12-13T21:31:23.821Z,99.90
2017-12-13T21:33:50.892Z,99.90
2017-12-13T21:36:17.892Z,99.90
2017-12-13T21:38:44.923Z,99.90
2017-12-13T21:41:12.011Z,99.90
2017-12-13T21:43:39.049Z,99.90
2017-12-13T21:46:06.050Z,99.90
2017-12-13T21:48:33.862Z,99.90
2017-12-13T21:51:00.912Z,99.90
2017-12-13T21:53:28.463Z,99.90
2017-12-13T21:55:55.506Z,99.90
2017-12-13T21:58:22.559Z,99.90
2017-12-13T22:00:49.592Z,99.90
2017-12-13T22:03:16.620Z,99.90
2017-12-13T22:05:44.429Z,99.90
2017-12-13T22:08:11.464Z,99.90
2017-12-13T22:10:38.517Z,99.90
2017-12-13T22:13:05.578Z,99.90
2017-12-13T22:15:32.571Z,99.90
2017-12-13T22:17:59.620Z,99.90
2017-12-13T22:20:27.366Z,99.90
2017-12-13T22:22:55.168Z,99.90
2017-12-13T22:25:22.192Z,99.90
2017-12-13T22:27:49.993Z,99.90
2017-12-13T22:30:17.027Z,99.90
2017-12-13T22:32:44.059Z,99.90
2017-12-13T22:35:11.083Z,99.90
2017-12-13T22:37:38.896Z,99.90
2017-12-13T22:40:05.920Z,99.90
2017-12-13T22:42:32.947Z,99.90
2017-12-13T22:45:00.740Z,99.90
2017-12-13T22:47:27.731Z,99.90
2017-12-13T22:49:54.781Z,99.90
2017-12-13T22:52:21.771Z,99.90
2017-12-13T22:54:48.809Z,99.90
2017-12-13T22:57:15.848Z,99.90
2017-12-13T22:59:43.642Z,99.90
2017-12-13T23:02:10.641Z,99.90
2017-12-13T23:04:37.683Z,99.90
2017-12-13T23:07:04.718Z,99.90
2017-12-13T23:09:31.756Z,99.90
2017-12-13T23:11:58.783Z,99.90
2017-12-13T23:14:25.815Z,99.90
2017-12-13T23:16:52.802Z,99.90
2017-12-13T23:19:19.798Z,99.90
2017-12-13T23:21:46.786Z,99.90
2017-12-13T23:24:13.773Z,99.90
2017-12-13T23:26:40.783Z,99.90
2017-12-13T23:29:07.779Z,99.90
2017-12-13T23:31:34.774Z,99.90
2017-12-13T23:34:01.770Z,99.90
2017-12-13T23:36:28.772Z,99.90
2017-12-13T23:38:55.782Z,99.90
2017-12-13T23:41:22.779Z,99.90
2017-12-13T23:43:50.554Z,99.90
2017-12-13T23:46:17.550Z,99.90
2017-12-13T23:48:44.546Z,99.90
2017-12-13T23:51:11.550Z,99.90
2017-12-13T23:53:38.535Z,99.90
2017-12-13T23:56:05.538Z,99.90
2017-12-13T23:58:32.542Z,99.90
